sensor_id;sensor_type;location;lat;lon;timestamp;P1;durP1;ratioP1;P2;durP2;ratioP2
80836;SDS011;70251;60.008;30.404;2023-06-14T00:10:31;5.43;;;2.00;;
80836;SDS011;70251;60.008;30.404;2023-06-14T00:13:57;6.63;;;1.83;;
80836;SDS011;70251;60.008;30.404;2023-06-14T00:17:18;5.35;;;2.00;;
80836;SDS011;70251;60.008;30.404;2023-06-14T00:20:07;8.60;;;2.38;;
80836;SDS011;70251;60.008;30.404;2023-06-14T00:22:38;6.15;;;1.85;;
80836;SDS011;70251;60.008;30.404;2023-06-14T00:25:04;6.13;;;2.00;;
80836;SDS011;70251;60.008;30.404;2023-06-14T00:42:27;9.33;;;1.83;;
80836;SDS011;70251;60.008;30.404;2023-06-14T00:45:08;6.13;;;1.80;;
80836;SDS011;70251;60.008;30.404;2023-06-14T00:47:35;6.20;;;1.67;;
80836;SDS011;70251;60.008;30.404;2023-06-14T00:50:05;7.70;;;1.90;;
80836;SDS011;70251;60.008;30.404;2023-06-14T00:53:27;6.32;;;1.88;;
80836;SDS011;70251;60.008;30.404;2023-06-14T01:00:37;6.60;;;1.90;;
80836;SDS011;70251;60.008;30.404;2023-06-14T01:03:12;5.82;;;1.85;;
80836;SDS011;70251;60.008;30.404;2023-06-14T01:15:47;6.90;;;1.75;;
80836;SDS011;70251;60.008;30.404;2023-06-14T01:18:17;5.50;;;1.98;;
80836;SDS011;70251;60.008;30.404;2023-06-14T01:20:53;5.93;;;1.85;;
80836;SDS011;70251;60.008;30.404;2023-06-14T01:23:20;8.75;;;2.15;;
80836;SDS011;70251;60.008;30.404;2023-06-14T01:25:47;7.17;;;1.67;;
80836;SDS011;70251;60.008;30.404;2023-06-14T01:28:18;5.90;;;1.73;;
80836;SDS011;70251;60.008;30.404;2023-06-14T01:30:47;5.63;;;1.80;;
80836;SDS011;70251;60.008;30.404;2023-06-14T01:33:19;8.73;;;1.88;;
80836;SDS011;70251;60.008;30.404;2023-06-14T01:35:48;6.30;;;1.67;;
80836;SDS011;70251;60.008;30.404;2023-06-14T01:38:15;8.13;;;1.80;;
80836;SDS011;70251;60.008;30.404;2023-06-14T01:40:44;8.75;;;1.98;;
80836;SDS011;70251;60.008;30.404;2023-06-14T01:43:11;6.50;;;1.70;;
80836;SDS011;70251;60.008;30.404;2023-06-14T01:45:40;5.70;;;1.80;;
80836;SDS011;70251;60.008;30.404;2023-06-14T01:48:06;7.13;;;1.70;;
80836;SDS011;70251;60.008;30.404;2023-06-14T01:50:32;5.32;;;1.42;;
80836;SDS011;70251;60.008;30.404;2023-06-14T01:53:01;7.05;;;1.15;;
80836;SDS011;70251;60.008;30.404;2023-06-14T01:55:27;4.90;;;1.23;;
80836;SDS011;70251;60.008;30.404;2023-06-14T01:58:11;5.53;;;1.60;;
80836;SDS011;70251;60.008;30.404;2023-06-14T02:04:52;4.93;;;1.15;;
80836;SDS011;70251;60.008;30.404;2023-06-14T02:08:05;7.45;;;1.30;;
80836;SDS011;70251;60.008;30.404;2023-06-14T02:10:41;5.07;;;1.38;;
80836;SDS011;70251;60.008;30.404;2023-06-14T02:13:12;3.65;;;1.08;;
80836;SDS011;70251;60.008;30.404;2023-06-14T02:15:43;6.30;;;0.90;;
80836;SDS011;70251;60.008;30.404;2023-06-14T02:18:17;4.05;;;1.13;;
80836;SDS011;70251;60.008;30.404;2023-06-14T02:20:45;3.75;;;1.10;;
80836;SDS011;70251;60.008;30.404;2023-06-14T02:23:18;5.07;;;1.38;;
80836;SDS011;70251;60.008;30.404;2023-06-14T02:26:21;5.20;;;1.15;;
80836;SDS011;70251;60.008;30.404;2023-06-14T02:29:00;4.10;;;1.00;;
80836;SDS011;70251;60.008;30.404;2023-06-14T02:32:11;4.00;;;1.02;;
80836;SDS011;70251;60.008;30.404;2023-06-14T02:34:39;4.15;;;1.27;;
80836;SDS011;70251;60.008;30.404;2023-06-14T02:37:06;4.28;;;1.10;;
80836;SDS011;70251;60.008;30.404;2023-06-14T02:39:34;5.00;;;1.20;;
80836;SDS011;70251;60.008;30.404;2023-06-14T02:42:37;4.00;;;1.10;;
80836;SDS011;70251;60.008;30.404;2023-06-14T02:45:07;4.53;;;1.00;;
80836;SDS011;70251;60.008;30.404;2023-06-14T02:47:38;4.45;;;1.02;;
80836;SDS011;70251;60.008;30.404;2023-06-14T02:50:03;4.53;;;0.80;;
80836;SDS011;70251;60.008;30.404;2023-06-14T02:52:29;4.15;;;0.93;;
80836;SDS011;70251;60.008;30.404;2023-06-14T02:54:55;4.50;;;1.03;;
80836;SDS011;70251;60.008;30.404;2023-06-14T02:57:26;3.63;;;1.00;;
80836;SDS011;70251;60.008;30.404;2023-06-14T02:59:52;4.90;;;1.40;;
80836;SDS011;70251;60.008;30.404;2023-06-14T03:02:21;5.10;;;1.17;;
80836;SDS011;70251;60.008;30.404;2023-06-14T03:04:46;5.23;;;1.50;;
80836;SDS011;70251;60.008;30.404;2023-06-14T03:07:12;4.53;;;1.20;;
80836;SDS011;70251;60.008;30.404;2023-06-14T03:09:41;5.35;;;1.05;;
80836;SDS011;70251;60.008;30.404;2023-06-14T03:12:07;5.53;;;1.10;;
80836;SDS011;70251;60.008;30.404;2023-06-14T03:14:34;6.90;;;1.15;;
80836;SDS011;70251;60.008;30.404;2023-06-14T03:17:07;5.25;;;1.25;;
80836;SDS011;70251;60.008;30.404;2023-06-14T03:19:33;3.95;;;1.10;;
80836;SDS011;70251;60.008;30.404;2023-06-14T03:22:02;4.57;;;1.37;;
80836;SDS011;70251;60.008;30.404;2023-06-14T03:24:28;4.80;;;0.90;;
80836;SDS011;70251;60.008;30.404;2023-06-14T03:26:53;4.25;;;1.00;;
80836;SDS011;70251;60.008;30.404;2023-06-14T03:29:22;4.35;;;1.30;;
80836;SDS011;70251;60.008;30.404;2023-06-14T03:32:01;4.47;;;1.07;;
80836;SDS011;70251;60.008;30.404;2023-06-14T03:34:30;7.28;;;1.02;;
80836;SDS011;70251;60.008;30.404;2023-06-14T03:36:55;4.07;;;1.10;;
80836;SDS011;70251;60.008;30.404;2023-06-14T03:39:21;4.10;;;1.20;;
80836;SDS011;70251;60.008;30.404;2023-06-14T03:41:50;6.15;;;1.30;;
80836;SDS011;70251;60.008;30.404;2023-06-14T03:44:19;7.30;;;1.60;;
80836;SDS011;70251;60.008;30.404;2023-06-14T03:46:45;7.03;;;1.23;;
80836;SDS011;70251;60.008;30.404;2023-06-14T03:49:13;4.05;;;1.00;;
80836;SDS011;70251;60.008;30.404;2023-06-14T03:51:42;8.23;;;1.00;;
80836;SDS011;70251;60.008;30.404;2023-06-14T03:54:14;4.13;;;1.10;;
80836;SDS011;70251;60.008;30.404;2023-06-14T03:56:40;5.10;;;0.93;;
80836;SDS011;70251;60.008;30.404;2023-06-14T03:59:05;3.40;;;0.75;;
80836;SDS011;70251;60.008;30.404;2023-06-14T04:01:33;5.23;;;0.90;;
80836;SDS011;70251;60.008;30.404;2023-06-14T04:03:59;4.50;;;1.10;;
80836;SDS011;70251;60.008;30.404;2023-06-14T04:06:25;3.60;;;0.90;;
80836;SDS011;70251;60.008;30.404;2023-06-14T04:08:58;6.57;;;1.30;;
80836;SDS011;70251;60.008;30.404;2023-06-14T04:14:59;5.57;;;0.98;;
80836;SDS011;70251;60.008;30.404;2023-06-14T04:17:26;3.40;;;0.90;;
80836;SDS011;70251;60.008;30.404;2023-06-14T04:19:52;3.50;;;0.97;;
80836;SDS011;70251;60.008;30.404;2023-06-14T04:22:20;4.93;;;1.10;;
80836;SDS011;70251;60.008;30.404;2023-06-14T04:25:07;5.00;;;1.17;;
80836;SDS011;70251;60.008;30.404;2023-06-14T04:27:35;4.65;;;1.05;;
80836;SDS011;70251;60.008;30.404;2023-06-14T04:30:30;6.40;;;1.15;;
80836;SDS011;70251;60.008;30.404;2023-06-14T04:32:57;4.23;;;0.70;;
80836;SDS011;70251;60.008;30.404;2023-06-14T04:35:22;6.90;;;0.95;;
80836;SDS011;70251;60.008;30.404;2023-06-14T04:37:54;5.43;;;1.00;;
80836;SDS011;70251;60.008;30.404;2023-06-14T04:40:20;5.65;;;1.40;;
80836;SDS011;70251;60.008;30.404;2023-06-14T04:42:45;4.93;;;0.93;;
80836;SDS011;70251;60.008;30.404;2023-06-14T04:45:11;5.67;;;1.00;;
80836;SDS011;70251;60.008;30.404;2023-06-14T04:47:38;7.18;;;1.00;;
80836;SDS011;70251;60.008;30.404;2023-06-14T04:50:06;3.78;;;0.70;;
80836;SDS011;70251;60.008;30.404;2023-06-14T04:52:32;5.13;;;1.00;;
80836;SDS011;70251;60.008;30.404;2023-06-14T04:55:00;4.75;;;1.00;;
80836;SDS011;70251;60.008;30.404;2023-06-14T04:57:27;3.40;;;1.03;;
80836;SDS011;70251;60.008;30.404;2023-06-14T04:59:52;4.00;;;1.10;;
80836;SDS011;70251;60.008;30.404;2023-06-14T05:02:22;5.65;;;1.33;;
80836;SDS011;70251;60.008;30.404;2023-06-14T05:04:51;6.72;;;1.20;;
80836;SDS011;70251;60.008;30.404;2023-06-14T05:07:22;6.27;;;1.20;;
80836;SDS011;70251;60.008;30.404;2023-06-14T05:09:51;5.13;;;0.93;;
80836;SDS011;70251;60.008;30.404;2023-06-14T05:12:17;4.25;;;0.80;;
80836;SDS011;70251;60.008;30.404;2023-06-14T05:14:44;5.23;;;1.10;;
80836;SDS011;70251;60.008;30.404;2023-06-14T05:17:10;6.35;;;1.23;;
80836;SDS011;70251;60.008;30.404;2023-06-14T05:19:35;6.82;;;1.20;;
80836;SDS011;70251;60.008;30.404;2023-06-14T05:22:01;4.03;;;1.17;;
80836;SDS011;70251;60.008;30.404;2023-06-14T05:24:28;4.85;;;1.00;;
80836;SDS011;70251;60.008;30.404;2023-06-14T05:26:55;3.50;;;0.90;;
80836;SDS011;70251;60.008;30.404;2023-06-14T05:29:21;6.78;;;1.10;;
80836;SDS011;70251;60.008;30.404;2023-06-14T05:31:47;3.20;;;0.93;;
80836;SDS011;70251;60.008;30.404;2023-06-14T05:34:13;4.90;;;1.13;;
80836;SDS011;70251;60.008;30.404;2023-06-14T05:36:38;6.90;;;1.43;;
80836;SDS011;70251;60.008;30.404;2023-06-14T05:39:04;6.78;;;1.13;;
80836;SDS011;70251;60.008;30.404;2023-06-14T05:41:31;5.60;;;0.90;;
80836;SDS011;70251;60.008;30.404;2023-06-14T05:43:59;6.53;;;1.20;;
80836;SDS011;70251;60.008;30.404;2023-06-14T05:46:26;6.63;;;1.30;;
80836;SDS011;70251;60.008;30.404;2023-06-14T05:48:52;3.97;;;1.13;;
80836;SDS011;70251;60.008;30.404;2023-06-14T05:51:18;5.35;;;1.20;;
80836;SDS011;70251;60.008;30.404;2023-06-14T05:53:44;6.38;;;0.93;;
80836;SDS011;70251;60.008;30.404;2023-06-14T05:56:11;7.90;;;1.15;;
80836;SDS011;70251;60.008;30.404;2023-06-14T05:58:42;4.32;;;1.30;;
80836;SDS011;70251;60.008;30.404;2023-06-14T06:01:10;9.37;;;1.27;;
80836;SDS011;70251;60.008;30.404;2023-06-14T06:03:36;7.40;;;1.25;;
80836;SDS011;70251;60.008;30.404;2023-06-14T06:06:02;3.73;;;0.80;;
80836;SDS011;70251;60.008;30.404;2023-06-14T06:08:28;4.40;;;1.13;;
80836;SDS011;70251;60.008;30.404;2023-06-14T06:10:54;5.93;;;1.30;;
80836;SDS011;70251;60.008;30.404;2023-06-14T06:13:22;6.78;;;1.00;;
80836;SDS011;70251;60.008;30.404;2023-06-14T06:15:48;4.70;;;1.20;;
80836;SDS011;70251;60.008;30.404;2023-06-14T06:18:14;5.88;;;1.20;;
80836;SDS011;70251;60.008;30.404;2023-06-14T06:20:57;5.73;;;1.30;;
80836;SDS011;70251;60.008;30.404;2023-06-14T06:24:12;5.82;;;0.85;;
80836;SDS011;70251;60.008;30.404;2023-06-14T06:26:55;6.03;;;1.00;;
80836;SDS011;70251;60.008;30.404;2023-06-14T06:29:26;5.40;;;0.80;;
80836;SDS011;70251;60.008;30.404;2023-06-14T06:31:57;7.38;;;1.10;;
80836;SDS011;70251;60.008;30.404;2023-06-14T06:34:25;4.30;;;0.88;;
80836;SDS011;70251;60.008;30.404;2023-06-14T06:36:51;6.68;;;1.20;;
80836;SDS011;70251;60.008;30.404;2023-06-14T06:39:30;7.03;;;1.30;;
80836;SDS011;70251;60.008;30.404;2023-06-14T06:41:56;6.07;;;1.20;;
80836;SDS011;70251;60.008;30.404;2023-06-14T06:44:25;5.03;;;1.10;;
80836;SDS011;70251;60.008;30.404;2023-06-14T06:46:54;4.70;;;1.10;;
80836;SDS011;70251;60.008;30.404;2023-06-14T06:49:48;4.07;;;0.98;;
80836;SDS011;70251;60.008;30.404;2023-06-14T06:52:16;3.93;;;1.10;;
80836;SDS011;70251;60.008;30.404;2023-06-14T06:54:54;5.03;;;1.10;;
80836;SDS011;70251;60.008;30.404;2023-06-14T06:57:21;5.60;;;1.20;;
80836;SDS011;70251;60.008;30.404;2023-06-14T07:00:00;3.58;;;1.08;;
80836;SDS011;70251;60.008;30.404;2023-06-14T07:05:33;5.38;;;1.10;;
80836;SDS011;70251;60.008;30.404;2023-06-14T07:08:01;4.22;;;1.10;;
80836;SDS011;70251;60.008;30.404;2023-06-14T07:10:27;4.27;;;1.13;;
80836;SDS011;70251;60.008;30.404;2023-06-14T07:12:53;5.43;;;1.23;;
80836;SDS011;70251;60.008;30.404;2023-06-14T07:15:18;4.33;;;0.87;;
80836;SDS011;70251;60.008;30.404;2023-06-14T07:17:49;6.03;;;1.10;;
80836;SDS011;70251;60.008;30.404;2023-06-14T07:23:13;3.20;;;0.93;;
80836;SDS011;70251;60.008;30.404;2023-06-14T07:25:49;7.80;;;1.23;;
80836;SDS011;70251;60.008;30.404;2023-06-14T07:28:25;4.47;;;1.00;;
80836;SDS011;70251;60.008;30.404;2023-06-14T07:30:54;4.60;;;1.17;;
80836;SDS011;70251;60.008;30.404;2023-06-14T07:33:22;3.17;;;1.05;;
80836;SDS011;70251;60.008;30.404;2023-06-14T07:36:16;5.53;;;1.07;;
80836;SDS011;70251;60.008;30.404;2023-06-14T07:38:43;4.88;;;1.10;;
80836;SDS011;70251;60.008;30.404;2023-06-14T07:41:11;6.72;;;1.45;;
80836;SDS011;70251;60.008;30.404;2023-06-14T07:43:48;4.93;;;1.23;;
80836;SDS011;70251;60.008;30.404;2023-06-14T07:46:14;6.63;;;1.20;;
80836;SDS011;70251;60.008;30.404;2023-06-14T07:49:21;6.50;;;0.93;;
80836;SDS011;70251;60.008;30.404;2023-06-14T07:52:38;3.85;;;0.90;;
80836;SDS011;70251;60.008;30.404;2023-06-14T07:58:39;8.20;;;1.35;;
80836;SDS011;70251;60.008;30.404;2023-06-14T08:01:18;7.25;;;1.30;;
80836;SDS011;70251;60.008;30.404;2023-06-14T08:03:49;4.37;;;1.20;;
80836;SDS011;70251;60.008;30.404;2023-06-14T08:06:15;8.88;;;1.33;;
80836;SDS011;70251;60.008;30.404;2023-06-14T08:08:45;4.38;;;1.23;;
80836;SDS011;70251;60.008;30.404;2023-06-14T08:11:11;12.27;;;1.30;;
80836;SDS011;70251;60.008;30.404;2023-06-14T08:13:39;4.10;;;1.50;;
80836;SDS011;70251;60.008;30.404;2023-06-14T08:16:09;4.55;;;1.33;;
80836;SDS011;70251;60.008;30.404;2023-06-14T08:18:35;6.30;;;1.48;;
80836;SDS011;70251;60.008;30.404;2023-06-14T08:21:01;5.90;;;1.30;;
80836;SDS011;70251;60.008;30.404;2023-06-14T08:23:28;6.45;;;1.50;;
80836;SDS011;70251;60.008;30.404;2023-06-14T08:25:53;4.00;;;1.20;;
80836;SDS011;70251;60.008;30.404;2023-06-14T08:28:19;4.57;;;1.37;;
80836;SDS011;70251;60.008;30.404;2023-06-14T08:30:45;5.07;;;1.73;;
80836;SDS011;70251;60.008;30.404;2023-06-14T08:33:11;4.43;;;1.43;;
80836;SDS011;70251;60.008;30.404;2023-06-14T08:35:36;4.15;;;1.40;;
80836;SDS011;70251;60.008;30.404;2023-06-14T08:38:03;6.23;;;2.30;;
80836;SDS011;70251;60.008;30.404;2023-06-14T08:40:29;5.57;;;2.03;;
80836;SDS011;70251;60.008;30.404;2023-06-14T08:42:56;5.55;;;1.60;;
80836;SDS011;70251;60.008;30.404;2023-06-14T08:45:22;4.30;;;1.50;;
80836;SDS011;70251;60.008;30.404;2023-06-14T08:47:48;4.88;;;1.48;;
80836;SDS011;70251;60.008;30.404;2023-06-14T08:50:22;4.40;;;1.13;;
80836;SDS011;70251;60.008;30.404;2023-06-14T08:52:54;7.95;;;1.80;;
80836;SDS011;70251;60.008;30.404;2023-06-14T08:55:22;6.70;;;1.60;;
80836;SDS011;70251;60.008;30.404;2023-06-14T08:57:53;4.65;;;1.63;;
80836;SDS011;70251;60.008;30.404;2023-06-14T09:00:20;5.05;;;1.83;;
80836;SDS011;70251;60.008;30.404;2023-06-14T09:02:46;6.75;;;1.58;;
80836;SDS011;70251;60.008;30.404;2023-06-14T09:05:12;6.00;;;1.52;;
80836;SDS011;70251;60.008;30.404;2023-06-14T09:07:43;7.73;;;1.80;;
80836;SDS011;70251;60.008;30.404;2023-06-14T09:10:10;4.65;;;1.55;;
80836;SDS011;70251;60.008;30.404;2023-06-14T09:12:37;3.75;;;1.42;;
80836;SDS011;70251;60.008;30.404;2023-06-14T09:15:03;4.85;;;1.50;;
80836;SDS011;70251;60.008;30.404;2023-06-14T09:17:37;8.23;;;1.70;;
80836;SDS011;70251;60.008;30.404;2023-06-14T09:20:04;5.82;;;1.55;;
80836;SDS011;70251;60.008;30.404;2023-06-14T09:22:35;3.80;;;1.38;;
80836;SDS011;70251;60.008;30.404;2023-06-14T09:25:02;5.28;;;1.52;;
80836;SDS011;70251;60.008;30.404;2023-06-14T09:27:29;5.43;;;1.80;;
80836;SDS011;70251;60.008;30.404;2023-06-14T09:29:55;5.27;;;1.77;;
80836;SDS011;70251;60.008;30.404;2023-06-14T09:32:22;5.35;;;1.80;;
80836;SDS011;70251;60.008;30.404;2023-06-14T09:34:47;6.43;;;1.73;;
80836;SDS011;70251;60.008;30.404;2023-06-14T09:37:13;6.30;;;1.67;;
80836;SDS011;70251;60.008;30.404;2023-06-14T09:39:53;6.53;;;1.58;;
80836;SDS011;70251;60.008;30.404;2023-06-14T09:42:19;4.70;;;1.67;;
80836;SDS011;70251;60.008;30.404;2023-06-14T09:44:47;5.45;;;1.58;;
80836;SDS011;70251;60.008;30.404;2023-06-14T09:47:17;7.07;;;2.10;;
80836;SDS011;70251;60.008;30.404;2023-06-14T09:49:43;6.47;;;1.60;;
80836;SDS011;70251;60.008;30.404;2023-06-14T09:52:14;4.20;;;1.60;;
80836;SDS011;70251;60.008;30.404;2023-06-14T09:54:42;4.97;;;1.70;;
80836;SDS011;70251;60.008;30.404;2023-06-14T09:57:10;5.13;;;1.70;;
80836;SDS011;70251;60.008;30.404;2023-06-14T09:59:42;6.07;;;1.70;;
80836;SDS011;70251;60.008;30.404;2023-06-14T10:02:11;4.38;;;1.70;;
80836;SDS011;70251;60.008;30.404;2023-06-14T10:04:56;6.45;;;2.05;;
80836;SDS011;70251;60.008;30.404;2023-06-14T10:07:30;4.43;;;1.67;;
80836;SDS011;70251;60.008;30.404;2023-06-14T10:09:59;7.00;;;1.93;;
80836;SDS011;70251;60.008;30.404;2023-06-14T10:12:26;6.05;;;1.70;;
80836;SDS011;70251;60.008;30.404;2023-06-14T10:14:52;4.95;;;1.70;;
80836;SDS011;70251;60.008;30.404;2023-06-14T10:17:27;4.32;;;1.60;;
80836;SDS011;70251;60.008;30.404;2023-06-14T10:19:58;4.53;;;1.60;;
80836;SDS011;70251;60.008;30.404;2023-06-14T10:22:37;4.80;;;1.77;;
80836;SDS011;70251;60.008;30.404;2023-06-14T10:25:13;4.60;;;1.70;;
80836;SDS011;70251;60.008;30.404;2023-06-14T10:27:51;4.10;;;1.65;;
80836;SDS011;70251;60.008;30.404;2023-06-14T10:30:17;7.03;;;1.80;;
80836;SDS011;70251;60.008;30.404;2023-06-14T10:33:06;6.03;;;1.92;;
80836;SDS011;70251;60.008;30.404;2023-06-14T10:35:32;5.15;;;1.90;;
80836;SDS011;70251;60.008;30.404;2023-06-14T10:38:19;5.25;;;2.00;;
80836;SDS011;70251;60.008;30.404;2023-06-14T10:40:54;5.47;;;1.80;;
80836;SDS011;70251;60.008;30.404;2023-06-14T10:43:21;9.13;;;2.55;;
80836;SDS011;70251;60.008;30.404;2023-06-14T10:48:45;10.60;;;2.10;;
80836;SDS011;70251;60.008;30.404;2023-06-14T10:51:15;4.60;;;1.60;;
80836;SDS011;70251;60.008;30.404;2023-06-14T10:53:45;6.37;;;1.83;;
80836;SDS011;70251;60.008;30.404;2023-06-14T10:56:30;5.93;;;1.95;;
80836;SDS011;70251;60.008;30.404;2023-06-14T10:58:57;5.15;;;2.10;;
80836;SDS011;70251;60.008;30.404;2023-06-14T11:01:28;5.90;;;2.30;;
80836;SDS011;70251;60.008;30.404;2023-06-14T11:04:09;4.78;;;1.98;;
80836;SDS011;70251;60.008;30.404;2023-06-14T11:06:48;5.10;;;1.73;;
80836;SDS011;70251;60.008;30.404;2023-06-14T11:12:09;8.50;;;2.13;;
80836;SDS011;70251;60.008;30.404;2023-06-14T11:14:38;4.80;;;2.30;;
80836;SDS011;70251;60.008;30.404;2023-06-14T11:17:04;6.63;;;2.28;;
80836;SDS011;70251;60.008;30.404;2023-06-14T11:19:30;8.57;;;2.70;;
80836;SDS011;70251;60.008;30.404;2023-06-14T11:21:57;7.68;;;3.42;;
80836;SDS011;70251;60.008;30.404;2023-06-14T11:24:22;4.72;;;2.20;;
80836;SDS011;70251;60.008;30.404;2023-06-14T11:26:48;6.03;;;2.20;;
80836;SDS011;70251;60.008;30.404;2023-06-14T11:29:15;6.85;;;2.42;;
80836;SDS011;70251;60.008;30.404;2023-06-14T11:31:47;5.93;;;1.88;;
80836;SDS011;70251;60.008;30.404;2023-06-14T11:34:13;5.33;;;1.93;;
80836;SDS011;70251;60.008;30.404;2023-06-14T11:36:41;5.97;;;2.42;;
80836;SDS011;70251;60.008;30.404;2023-06-14T11:39:28;5.55;;;1.90;;
80836;SDS011;70251;60.008;30.404;2023-06-14T11:41:54;6.67;;;2.07;;
80836;SDS011;70251;60.008;30.404;2023-06-14T11:44:20;5.63;;;2.03;;
80836;SDS011;70251;60.008;30.404;2023-06-14T11:46:45;6.37;;;2.10;;
80836;SDS011;70251;60.008;30.404;2023-06-14T11:49:11;5.40;;;2.30;;
80836;SDS011;70251;60.008;30.404;2023-06-14T11:51:37;4.80;;;2.10;;
80836;SDS011;70251;60.008;30.404;2023-06-14T11:54:02;5.00;;;2.00;;
80836;SDS011;70251;60.008;30.404;2023-06-14T11:56:30;6.30;;;2.10;;
80836;SDS011;70251;60.008;30.404;2023-06-14T11:58:57;5.18;;;2.40;;
80836;SDS011;70251;60.008;30.404;2023-06-14T12:01:22;5.40;;;2.33;;
80836;SDS011;70251;60.008;30.404;2023-06-14T12:03:49;5.65;;;2.35;;
80836;SDS011;70251;60.008;30.404;2023-06-14T12:06:15;4.78;;;2.25;;
80836;SDS011;70251;60.008;30.404;2023-06-14T12:08:43;8.07;;;2.22;;
80836;SDS011;70251;60.008;30.404;2023-06-14T12:11:11;6.10;;;2.77;;
80836;SDS011;70251;60.008;30.404;2023-06-14T12:13:41;5.35;;;2.53;;
80836;SDS011;70251;60.008;30.404;2023-06-14T12:16:11;5.07;;;2.30;;
80836;SDS011;70251;60.008;30.404;2023-06-14T12:18:40;5.85;;;2.20;;
80836;SDS011;70251;60.008;30.404;2023-06-14T12:21:08;5.40;;;2.53;;
80836;SDS011;70251;60.008;30.404;2023-06-14T12:23:53;6.70;;;2.30;;
80836;SDS011;70251;60.008;30.404;2023-06-14T12:26:19;4.57;;;2.30;;
80836;SDS011;70251;60.008;30.404;2023-06-14T12:28:46;5.82;;;2.45;;
80836;SDS011;70251;60.008;30.404;2023-06-14T12:31:13;6.32;;;2.53;;
80836;SDS011;70251;60.008;30.404;2023-06-14T12:33:40;8.85;;;2.38;;
80836;SDS011;70251;60.008;30.404;2023-06-14T12:36:06;7.03;;;2.80;;
80836;SDS011;70251;60.008;30.404;2023-06-14T12:38:33;7.40;;;2.53;;
80836;SDS011;70251;60.008;30.404;2023-06-14T12:40:59;9.82;;;2.47;;
80836;SDS011;70251;60.008;30.404;2023-06-14T12:43:25;8.55;;;2.55;;
80836;SDS011;70251;60.008;30.404;2023-06-14T12:45:50;4.83;;;2.63;;
80836;SDS011;70251;60.008;30.404;2023-06-14T12:48:16;4.80;;;2.13;;
80836;SDS011;70251;60.008;30.404;2023-06-14T12:50:41;4.90;;;2.53;;
80836;SDS011;70251;60.008;30.404;2023-06-14T12:53:07;7.50;;;2.40;;
80836;SDS011;70251;60.008;30.404;2023-06-14T12:55:33;5.25;;;2.42;;
80836;SDS011;70251;60.008;30.404;2023-06-14T12:57:58;5.30;;;2.70;;
80836;SDS011;70251;60.008;30.404;2023-06-14T13:00:27;6.65;;;2.95;;
80836;SDS011;70251;60.008;30.404;2023-06-14T13:02:52;7.25;;;2.67;;
80836;SDS011;70251;60.008;30.404;2023-06-14T13:05:18;7.43;;;2.47;;
80836;SDS011;70251;60.008;30.404;2023-06-14T13:07:44;8.27;;;2.63;;
80836;SDS011;70251;60.008;30.404;2023-06-14T13:10:10;5.07;;;2.70;;
80836;SDS011;70251;60.008;30.404;2023-06-14T13:12:35;5.75;;;2.50;;
80836;SDS011;70251;60.008;30.404;2023-06-14T13:15:01;6.07;;;2.63;;
80836;SDS011;70251;60.008;30.404;2023-06-14T13:17:27;6.97;;;2.70;;
80836;SDS011;70251;60.008;30.404;2023-06-14T13:19:53;5.60;;;3.17;;
80836;SDS011;70251;60.008;30.404;2023-06-14T13:22:18;6.83;;;3.00;;
80836;SDS011;70251;60.008;30.404;2023-06-14T13:24:44;8.30;;;3.13;;
80836;SDS011;70251;60.008;30.404;2023-06-14T13:27:13;7.30;;;3.28;;
80836;SDS011;70251;60.008;30.404;2023-06-14T13:29:41;8.33;;;3.23;;
80836;SDS011;70251;60.008;30.404;2023-06-14T13:32:07;7.53;;;3.22;;
80836;SDS011;70251;60.008;30.404;2023-06-14T13:34:32;6.63;;;3.23;;
80836;SDS011;70251;60.008;30.404;2023-06-14T13:36:58;8.17;;;3.20;;
80836;SDS011;70251;60.008;30.404;2023-06-14T13:39:26;6.18;;;3.08;;
80836;SDS011;70251;60.008;30.404;2023-06-14T13:41:52;7.63;;;3.27;;
80836;SDS011;70251;60.008;30.404;2023-06-14T13:44:17;6.87;;;3.50;;
80836;SDS011;70251;60.008;30.404;2023-06-14T13:46:46;7.23;;;3.20;;
80836;SDS011;70251;60.008;30.404;2023-06-14T13:49:12;7.15;;;2.95;;
80836;SDS011;70251;60.008;30.404;2023-06-14T13:51:40;6.97;;;3.00;;
80836;SDS011;70251;60.008;30.404;2023-06-14T13:54:05;8.20;;;2.90;;
80836;SDS011;70251;60.008;30.404;2023-06-14T13:56:31;8.93;;;2.95;;
80836;SDS011;70251;60.008;30.404;2023-06-14T13:58:56;5.57;;;3.00;;
80836;SDS011;70251;60.008;30.404;2023-06-14T14:01:23;7.60;;;3.00;;
80836;SDS011;70251;60.008;30.404;2023-06-14T14:03:50;5.15;;;3.13;;
80836;SDS011;70251;60.008;30.404;2023-06-14T14:06:16;7.00;;;2.70;;
80836;SDS011;70251;60.008;30.404;2023-06-14T14:08:42;8.38;;;3.10;;
80836;SDS011;70251;60.008;30.404;2023-06-14T14:11:08;7.47;;;2.72;;
80836;SDS011;70251;60.008;30.404;2023-06-14T14:13:34;6.90;;;2.70;;
80836;SDS011;70251;60.008;30.404;2023-06-14T14:16:04;9.23;;;3.00;;
80836;SDS011;70251;60.008;30.404;2023-06-14T14:18:30;9.50;;;3.30;;
80836;SDS011;70251;60.008;30.404;2023-06-14T14:20:56;10.20;;;3.42;;
80836;SDS011;70251;60.008;30.404;2023-06-14T14:23:22;7.40;;;3.03;;
80836;SDS011;70251;60.008;30.404;2023-06-14T14:25:47;10.13;;;3.07;;
80836;SDS011;70251;60.008;30.404;2023-06-14T14:28:13;7.97;;;3.40;;
80836;SDS011;70251;60.008;30.404;2023-06-14T14:30:41;6.03;;;2.70;;
80836;SDS011;70251;60.008;30.404;2023-06-14T14:33:07;9.13;;;3.30;;
80836;SDS011;70251;60.008;30.404;2023-06-14T14:35:33;5.93;;;3.00;;
80836;SDS011;70251;60.008;30.404;2023-06-14T14:37:58;7.68;;;3.28;;
80836;SDS011;70251;60.008;30.404;2023-06-14T14:40:24;6.70;;;2.90;;
80836;SDS011;70251;60.008;30.404;2023-06-14T14:42:50;6.85;;;2.88;;
80836;SDS011;70251;60.008;30.404;2023-06-14T14:45:16;10.90;;;3.07;;
80836;SDS011;70251;60.008;30.404;2023-06-14T14:47:41;7.55;;;2.83;;
80836;SDS011;70251;60.008;30.404;2023-06-14T14:50:07;11.53;;;2.93;;
80836;SDS011;70251;60.008;30.404;2023-06-14T14:52:36;8.05;;;2.92;;
80836;SDS011;70251;60.008;30.404;2023-06-14T14:55:01;6.73;;;2.87;;
80836;SDS011;70251;60.008;30.404;2023-06-14T14:57:27;7.20;;;2.72;;
80836;SDS011;70251;60.008;30.404;2023-06-14T14:59:55;6.72;;;2.90;;
80836;SDS011;70251;60.008;30.404;2023-06-14T15:02:21;8.87;;;2.87;;
80836;SDS011;70251;60.008;30.404;2023-06-14T15:04:49;6.95;;;3.05;;
80836;SDS011;70251;60.008;30.404;2023-06-14T15:07:14;6.95;;;2.70;;
80836;SDS011;70251;60.008;30.404;2023-06-14T15:09:40;8.27;;;3.00;;
80836;SDS011;70251;60.008;30.404;2023-06-14T15:12:06;9.52;;;3.10;;
80836;SDS011;70251;60.008;30.404;2023-06-14T15:14:36;7.82;;;3.40;;
80836;SDS011;70251;60.008;30.404;2023-06-14T15:17:01;8.67;;;2.77;;
80836;SDS011;70251;60.008;30.404;2023-06-14T15:19:28;7.75;;;2.97;;
80836;SDS011;70251;60.008;30.404;2023-06-14T15:21:53;10.07;;;3.53;;
80836;SDS011;70251;60.008;30.404;2023-06-14T15:24:18;10.13;;;3.20;;
80836;SDS011;70251;60.008;30.404;2023-06-14T15:26:44;8.85;;;2.92;;
80836;SDS011;70251;60.008;30.404;2023-06-14T15:29:10;8.30;;;3.30;;
80836;SDS011;70251;60.008;30.404;2023-06-14T15:31:38;9.43;;;3.30;;
80836;SDS011;70251;60.008;30.404;2023-06-14T15:34:03;9.53;;;3.17;;
80836;SDS011;70251;60.008;30.404;2023-06-14T15:36:29;13.77;;;2.88;;
80836;SDS011;70251;60.008;30.404;2023-06-14T15:38:57;7.00;;;3.35;;
80836;SDS011;70251;60.008;30.404;2023-06-14T15:41:31;10.57;;;2.80;;
80836;SDS011;70251;60.008;30.404;2023-06-14T15:43:57;8.13;;;3.00;;
80836;SDS011;70251;60.008;30.404;2023-06-14T15:46:25;7.63;;;2.67;;
80836;SDS011;70251;60.008;30.404;2023-06-14T15:48:51;8.20;;;3.00;;
80836;SDS011;70251;60.008;30.404;2023-06-14T15:51:18;8.17;;;3.20;;